sensor_id;sensor_type;location;lat;lon;timestamp;P1;durP1;ratioP1;P2;durP2;ratioP2
11283;SDS011;5698;47.332;11.180;2023-03-19T00:02:05;3.70;;;2.97;;
11283;SDS011;5698;47.332;11.180;2023-03-19T00:04:32;4.30;;;3.13;;
11283;SDS011;5698;47.332;11.180;2023-03-19T00:07:01;4.00;;;2.73;;
11283;SDS011;5698;47.332;11.180;2023-03-19T00:09:28;3.77;;;2.80;;
11283;SDS011;5698;47.332;11.180;2023-03-19T00:11:55;3.40;;;2.67;;
11283;SDS011;5698;47.332;11.180;2023-03-19T00:14:22;3.47;;;2.83;;
11283;SDS011;5698;47.332;11.180;2023-03-19T00:16:49;3.43;;;2.60;;
11283;SDS011;5698;47.332;11.180;2023-03-19T00:19:16;3.90;;;2.33;;
11283;SDS011;5698;47.332;11.180;2023-03-19T00:21:43;3.47;;;2.93;;
11283;SDS011;5698;47.332;11.180;2023-03-19T00:24:12;3.13;;;2.23;;
11283;SDS011;5698;47.332;11.180;2023-03-19T00:26:40;5.03;;;3.00;;
11283;SDS011;5698;47.332;11.180;2023-03-19T00:29:07;4.67;;;2.90;;
11283;SDS011;5698;47.332;11.180;2023-03-19T00:31:34;4.73;;;2.57;;
11283;SDS011;5698;47.332;11.180;2023-03-19T00:34:01;4.07;;;2.33;;
11283;SDS011;5698;47.332;11.180;2023-03-19T00:36:28;3.17;;;2.53;;
11283;SDS011;5698;47.332;11.180;2023-03-19T00:38:55;3.20;;;2.67;;
11283;SDS011;5698;47.332;11.180;2023-03-19T00:41:24;5.33;;;2.73;;
11283;SDS011;5698;47.332;11.180;2023-03-19T00:43:51;2.53;;;2.30;;
11283;SDS011;5698;47.332;11.180;2023-03-19T00:46:19;1.87;;;1.73;;
11283;SDS011;5698;47.332;11.180;2023-03-19T00:48:46;5.67;;;2.20;;
11283;SDS011;5698;47.332;11.180;2023-03-19T00:51:15;2.33;;;1.70;;
11283;SDS011;5698;47.332;11.180;2023-03-19T00:53:42;2.80;;;2.27;;
11283;SDS011;5698;47.332;11.180;2023-03-19T00:56:10;3.50;;;2.00;;
11283;SDS011;5698;47.332;11.180;2023-03-19T00:58:40;2.37;;;1.90;;
11283;SDS011;5698;47.332;11.180;2023-03-19T01:01:07;2.60;;;2.30;;
11283;SDS011;5698;47.332;11.180;2023-03-19T01:03:35;4.50;;;2.40;;
11283;SDS011;5698;47.332;11.180;2023-03-19T01:06:02;3.40;;;2.27;;
11283;SDS011;5698;47.332;11.180;2023-03-19T01:08:30;2.40;;;2.10;;
11283;SDS011;5698;47.332;11.180;2023-03-19T01:11:03;3.37;;;2.40;;
11283;SDS011;5698;47.332;11.180;2023-03-19T01:13:31;2.67;;;2.30;;
11283;SDS011;5698;47.332;11.180;2023-03-19T01:15:59;3.17;;;2.70;;
11283;SDS011;5698;47.332;11.180;2023-03-19T01:18:26;4.50;;;2.93;;
11283;SDS011;5698;47.332;11.180;2023-03-19T01:20:53;4.03;;;2.90;;
11283;SDS011;5698;47.332;11.180;2023-03-19T01:23:20;3.40;;;2.83;;
11283;SDS011;5698;47.332;11.180;2023-03-19T01:25:47;3.10;;;2.60;;
11283;SDS011;5698;47.332;11.180;2023-03-19T01:28:14;4.00;;;2.83;;
11283;SDS011;5698;47.332;11.180;2023-03-19T01:30:41;3.27;;;2.83;;
11283;SDS011;5698;47.332;11.180;2023-03-19T01:33:10;4.00;;;3.00;;
11283;SDS011;5698;47.332;11.180;2023-03-19T01:35:37;4.20;;;3.03;;
11283;SDS011;5698;47.332;11.180;2023-03-19T01:38:04;6.77;;;3.43;;
11283;SDS011;5698;47.332;11.180;2023-03-19T01:40:32;5.87;;;3.47;;
11283;SDS011;5698;47.332;11.180;2023-03-19T01:43:11;6.03;;;3.80;;
11283;SDS011;5698;47.332;11.180;2023-03-19T01:45:41;3.70;;;3.33;;
11283;SDS011;5698;47.332;11.180;2023-03-19T01:48:14;5.93;;;3.77;;
11283;SDS011;5698;47.332;11.180;2023-03-19T01:50:45;5.33;;;3.77;;
11283;SDS011;5698;47.332;11.180;2023-03-19T01:53:18;5.93;;;4.20;;
11283;SDS011;5698;47.332;11.180;2023-03-19T01:55:48;4.73;;;3.50;;
11283;SDS011;5698;47.332;11.180;2023-03-19T01:58:17;4.73;;;3.60;;
11283;SDS011;5698;47.332;11.180;2023-03-19T02:00:45;4.13;;;3.60;;
11283;SDS011;5698;47.332;11.180;2023-03-19T02:03:13;5.53;;;3.93;;
11283;SDS011;5698;47.332;11.180;2023-03-19T02:05:41;5.47;;;4.40;;
11283;SDS011;5698;47.332;11.180;2023-03-19T02:08:11;4.53;;;3.70;;
11283;SDS011;5698;47.332;11.180;2023-03-19T02:10:41;6.13;;;4.20;;
11283;SDS011;5698;47.332;11.180;2023-03-19T02:13:09;5.73;;;4.00;;
11283;SDS011;5698;47.332;11.180;2023-03-19T02:15:37;5.23;;;4.43;;
11283;SDS011;5698;47.332;11.180;2023-03-19T02:18:04;7.03;;;4.43;;
11283;SDS011;5698;47.332;11.180;2023-03-19T02:20:36;6.80;;;4.50;;
11283;SDS011;5698;47.332;11.180;2023-03-19T02:23:11;7.57;;;5.03;;
11283;SDS011;5698;47.332;11.180;2023-03-19T02:25:49;5.67;;;5.07;;
11283;SDS011;5698;47.332;11.180;2023-03-19T02:28:22;5.50;;;4.77;;
11283;SDS011;5698;47.332;11.180;2023-03-19T02:30:50;5.20;;;4.70;;
11283;SDS011;5698;47.332;11.180;2023-03-19T02:33:18;5.13;;;4.50;;
11283;SDS011;5698;47.332;11.180;2023-03-19T02:35:46;5.47;;;4.30;;
11283;SDS011;5698;47.332;11.180;2023-03-19T02:38:15;4.60;;;4.10;;
11283;SDS011;5698;47.332;11.180;2023-03-19T02:40:43;4.33;;;3.93;;
11283;SDS011;5698;47.332;11.180;2023-03-19T02:43:16;5.50;;;4.57;;
11283;SDS011;5698;47.332;11.180;2023-03-19T02:45:43;4.47;;;4.00;;
11283;SDS011;5698;47.332;11.180;2023-03-19T02:48:10;6.43;;;4.43;;
11283;SDS011;5698;47.332;11.180;2023-03-19T02:50:37;5.50;;;4.10;;
11283;SDS011;5698;47.332;11.180;2023-03-19T02:53:04;5.20;;;4.20;;
11283;SDS011;5698;47.332;11.180;2023-03-19T02:55:31;5.80;;;4.57;;
11283;SDS011;5698;47.332;11.180;2023-03-19T02:57:58;4.93;;;4.20;;
11283;SDS011;5698;47.332;11.180;2023-03-19T03:00:26;6.37;;;4.27;;
11283;SDS011;5698;47.332;11.180;2023-03-19T03:02:53;5.80;;;4.33;;
11283;SDS011;5698;47.332;11.180;2023-03-19T03:05:21;6.17;;;4.17;;
11283;SDS011;5698;47.332;11.180;2023-03-19T03:07:48;5.63;;;4.23;;
11283;SDS011;5698;47.332;11.180;2023-03-19T03:10:15;5.57;;;4.53;;
11283;SDS011;5698;47.332;11.180;2023-03-19T03:12:43;5.07;;;4.40;;
11283;SDS011;5698;47.332;11.180;2023-03-19T03:15:10;5.17;;;4.67;;
11283;SDS011;5698;47.332;11.180;2023-03-19T03:17:40;7.03;;;4.50;;
11283;SDS011;5698;47.332;11.180;2023-03-19T03:20:11;6.37;;;4.83;;
11283;SDS011;5698;47.332;11.180;2023-03-19T03:22:40;8.47;;;4.90;;
11283;SDS011;5698;47.332;11.180;2023-03-19T03:25:07;5.63;;;4.30;;
11283;SDS011;5698;47.332;11.180;2023-03-19T03:27:35;4.53;;;4.13;;
11283;SDS011;5698;47.332;11.180;2023-03-19T03:30:03;5.70;;;4.63;;
11283;SDS011;5698;47.332;11.180;2023-03-19T03:32:32;5.53;;;4.73;;
11283;SDS011;5698;47.332;11.180;2023-03-19T03:35:00;5.27;;;4.40;;
11283;SDS011;5698;47.332;11.180;2023-03-19T03:37:28;5.57;;;4.53;;
11283;SDS011;5698;47.332;11.180;2023-03-19T03:39:55;4.93;;;4.50;;
11283;SDS011;5698;47.332;11.180;2023-03-19T03:42:22;6.23;;;4.47;;
11283;SDS011;5698;47.332;11.180;2023-03-19T03:44:49;6.13;;;4.70;;
11283;SDS011;5698;47.332;11.180;2023-03-19T03:47:16;5.43;;;4.77;;
11283;SDS011;5698;47.332;11.180;2023-03-19T03:49:43;5.87;;;4.90;;
11283;SDS011;5698;47.332;11.180;2023-03-19T03:52:12;6.43;;;4.83;;
11283;SDS011;5698;47.332;11.180;2023-03-19T03:54:39;5.33;;;4.53;;
11283;SDS011;5698;47.332;11.180;2023-03-19T03:57:06;7.07;;;4.73;;
11283;SDS011;5698;47.332;11.180;2023-03-19T03:59:33;7.60;;;5.10;;
11283;SDS011;5698;47.332;11.180;2023-03-19T04:02:00;5.57;;;4.40;;
11283;SDS011;5698;47.332;11.180;2023-03-19T04:04:27;5.10;;;4.30;;
11283;SDS011;5698;47.332;11.180;2023-03-19T04:06:55;4.93;;;4.37;;
11283;SDS011;5698;47.332;11.180;2023-03-19T04:09:23;6.10;;;4.30;;
11283;SDS011;5698;47.332;11.180;2023-03-19T04:11:51;5.57;;;4.20;;
11283;SDS011;5698;47.332;11.180;2023-03-19T04:14:18;6.97;;;4.70;;
11283;SDS011;5698;47.332;11.180;2023-03-19T04:16:45;5.70;;;4.10;;
11283;SDS011;5698;47.332;11.180;2023-03-19T04:19:12;5.43;;;4.73;;
11283;SDS011;5698;47.332;11.180;2023-03-19T04:21:39;4.07;;;3.67;;
11283;SDS011;5698;47.332;11.180;2023-03-19T04:24:06;5.90;;;3.90;;
11283;SDS011;5698;47.332;11.180;2023-03-19T04:26:36;4.87;;;3.77;;
11283;SDS011;5698;47.332;11.180;2023-03-19T04:29:04;5.60;;;4.23;;
11283;SDS011;5698;47.332;11.180;2023-03-19T04:31:32;6.90;;;4.20;;
11283;SDS011;5698;47.332;11.180;2023-03-19T04:33:59;6.50;;;4.87;;
11283;SDS011;5698;47.332;11.180;2023-03-19T04:36:26;6.27;;;5.07;;
11283;SDS011;5698;47.332;11.180;2023-03-19T04:38:53;4.53;;;4.00;;
11283;SDS011;5698;47.332;11.180;2023-03-19T04:41:20;5.13;;;4.37;;
11283;SDS011;5698;47.332;11.180;2023-03-19T04:43:49;5.03;;;4.53;;
11283;SDS011;5698;47.332;11.180;2023-03-19T04:46:16;5.10;;;4.10;;
11283;SDS011;5698;47.332;11.180;2023-03-19T04:48:43;4.40;;;3.93;;
11283;SDS011;5698;47.332;11.180;2023-03-19T04:51:10;6.13;;;4.40;;
11283;SDS011;5698;47.332;11.180;2023-03-19T04:53:37;4.57;;;4.00;;
11283;SDS011;5698;47.332;11.180;2023-03-19T04:56:05;6.27;;;4.87;;
11283;SDS011;5698;47.332;11.180;2023-03-19T04:58:33;5.00;;;4.33;;
11283;SDS011;5698;47.332;11.180;2023-03-19T05:01:01;5.07;;;4.43;;
11283;SDS011;5698;47.332;11.180;2023-03-19T05:03:28;4.63;;;3.73;;
11283;SDS011;5698;47.332;11.180;2023-03-19T05:05:55;5.37;;;3.93;;
11283;SDS011;5698;47.332;11.180;2023-03-19T05:08:22;4.83;;;3.50;;
11283;SDS011;5698;47.332;11.180;2023-03-19T05:10:49;4.70;;;4.20;;
11283;SDS011;5698;47.332;11.180;2023-03-19T05:13:16;4.87;;;3.90;;
11283;SDS011;5698;47.332;11.180;2023-03-19T05:15:44;5.23;;;4.20;;
11283;SDS011;5698;47.332;11.180;2023-03-19T05:18:13;5.57;;;4.10;;
11283;SDS011;5698;47.332;11.180;2023-03-19T05:20:40;5.43;;;4.33;;
11283;SDS011;5698;47.332;11.180;2023-03-19T05:23:08;5.23;;;4.33;;
11283;SDS011;5698;47.332;11.180;2023-03-19T05:25:35;6.47;;;4.27;;
11283;SDS011;5698;47.332;11.180;2023-03-19T05:28:02;4.70;;;3.87;;
11283;SDS011;5698;47.332;11.180;2023-03-19T05:30:31;7.90;;;4.43;;
11283;SDS011;5698;47.332;11.180;2023-03-19T05:32:58;4.83;;;4.03;;
11283;SDS011;5698;47.332;11.180;2023-03-19T05:35:28;4.33;;;3.63;;
11283;SDS011;5698;47.332;11.180;2023-03-19T05:37:56;5.50;;;4.10;;
11283;SDS011;5698;47.332;11.180;2023-03-19T05:40:23;4.63;;;3.80;;
11283;SDS011;5698;47.332;11.180;2023-03-19T05:42:50;5.27;;;4.33;;
11283;SDS011;5698;47.332;11.180;2023-03-19T05:45:17;5.17;;;4.37;;
11283;SDS011;5698;47.332;11.180;2023-03-19T05:47:45;5.67;;;4.00;;
11283;SDS011;5698;47.332;11.180;2023-03-19T05:50:14;4.70;;;3.80;;
11283;SDS011;5698;47.332;11.180;2023-03-19T05:52:43;4.27;;;3.53;;
11283;SDS011;5698;47.332;11.180;2023-03-19T05:55:10;4.93;;;4.30;;
11283;SDS011;5698;47.332;11.180;2023-03-19T05:57:37;5.53;;;4.13;;
11283;SDS011;5698;47.332;11.180;2023-03-19T06:00:05;6.20;;;5.10;;
11283;SDS011;5698;47.332;11.180;2023-03-19T06:02:33;5.23;;;3.87;;
11283;SDS011;5698;47.332;11.180;2023-03-19T06:05:00;4.13;;;3.37;;
11283;SDS011;5698;47.332;11.180;2023-03-19T06:07:28;6.90;;;4.63;;
11283;SDS011;5698;47.332;11.180;2023-03-19T06:09:56;6.00;;;4.00;;
11283;SDS011;5698;47.332;11.180;2023-03-19T06:12:23;8.17;;;6.37;;
11283;SDS011;5698;47.332;11.180;2023-03-19T06:14:50;10.43;;;7.07;;
11283;SDS011;5698;47.332;11.180;2023-03-19T06:17:17;6.33;;;4.37;;
11283;SDS011;5698;47.332;11.180;2023-03-19T06:19:44;8.27;;;6.70;;
11283;SDS011;5698;47.332;11.180;2023-03-19T06:22:11;5.00;;;4.33;;
11283;SDS011;5698;47.332;11.180;2023-03-19T06:24:38;3.63;;;3.13;;
11283;SDS011;5698;47.332;11.180;2023-03-19T06:27:07;3.83;;;3.43;;
11283;SDS011;5698;47.332;11.180;2023-03-19T06:29:34;3.93;;;3.07;;
11283;SDS011;5698;47.332;11.180;2023-03-19T06:32:01;3.03;;;2.73;;
11283;SDS011;5698;47.332;11.180;2023-03-19T06:34:29;3.13;;;2.37;;
11283;SDS011;5698;47.332;11.180;2023-03-19T06:36:55;5.10;;;2.77;;
11283;SDS011;5698;47.332;11.180;2023-03-19T06:39:22;3.20;;;2.87;;
11283;SDS011;5698;47.332;11.180;2023-03-19T06:41:50;4.67;;;3.13;;
11283;SDS011;5698;47.332;11.180;2023-03-19T06:44:18;3.37;;;2.70;;
11283;SDS011;5698;47.332;11.180;2023-03-19T06:46:45;4.70;;;3.70;;
11283;SDS011;5698;47.332;11.180;2023-03-19T06:49:12;3.47;;;2.80;;
11283;SDS011;5698;47.332;11.180;2023-03-19T06:51:39;2.83;;;2.63;;
11283;SDS011;5698;47.332;11.180;2023-03-19T06:54:06;3.40;;;3.00;;
11283;SDS011;5698;47.332;11.180;2023-03-19T06:56:33;4.60;;;2.80;;
11283;SDS011;5698;47.332;11.180;2023-03-19T06:59:00;4.23;;;3.00;;
11283;SDS011;5698;47.332;11.180;2023-03-19T07:01:29;3.53;;;2.50;;
11283;SDS011;5698;47.332;11.180;2023-03-19T07:03:56;4.27;;;2.60;;
11283;SDS011;5698;47.332;11.180;2023-03-19T07:06:23;3.50;;;2.40;;
11283;SDS011;5698;47.332;11.180;2023-03-19T07:08:50;3.17;;;2.63;;
11283;SDS011;5698;47.332;11.180;2023-03-19T07:11:17;3.93;;;2.60;;
11283;SDS011;5698;47.332;11.180;2023-03-19T07:13:43;2.70;;;2.50;;
11283;SDS011;5698;47.332;11.180;2023-03-19T07:16:11;4.90;;;2.30;;
11283;SDS011;5698;47.332;11.180;2023-03-19T07:18:39;3.43;;;2.90;;
11283;SDS011;5698;47.332;11.180;2023-03-19T07:21:06;3.07;;;1.97;;
11283;SDS011;5698;47.332;11.180;2023-03-19T07:23:33;4.43;;;3.47;;
11283;SDS011;5698;47.332;11.180;2023-03-19T07:26:00;5.60;;;3.77;;
11283;SDS011;5698;47.332;11.180;2023-03-19T07:28:27;2.53;;;2.13;;
11283;SDS011;5698;47.332;11.180;2023-03-19T07:30:54;3.40;;;2.13;;
11283;SDS011;5698;47.332;11.180;2023-03-19T07:33:21;2.80;;;2.17;;
11283;SDS011;5698;47.332;11.180;2023-03-19T07:35:49;4.60;;;2.20;;
11283;SDS011;5698;47.332;11.180;2023-03-19T07:38:16;4.57;;;2.37;;
11283;SDS011;5698;47.332;11.180;2023-03-19T07:40:43;2.70;;;2.30;;
11283;SDS011;5698;47.332;11.180;2023-03-19T07:43:10;3.73;;;2.50;;
11283;SDS011;5698;47.332;11.180;2023-03-19T07:45:37;3.03;;;2.13;;
11283;SDS011;5698;47.332;11.180;2023-03-19T07:48:05;5.30;;;4.20;;
11283;SDS011;5698;47.332;11.180;2023-03-19T07:50:32;3.33;;;3.03;;
11283;SDS011;5698;47.332;11.180;2023-03-19T07:53:01;8.13;;;6.03;;
11283;SDS011;5698;47.332;11.180;2023-03-19T07:55:28;2.63;;;2.17;;
11283;SDS011;5698;47.332;11.180;2023-03-19T07:57:55;3.87;;;2.10;;
11283;SDS011;5698;47.332;11.180;2023-03-19T08:00:22;2.90;;;1.90;;
11283;SDS011;5698;47.332;11.180;2023-03-19T08:02:49;3.33;;;2.23;;
11283;SDS011;5698;47.332;11.180;2023-03-19T08:05:16;4.40;;;2.27;;
11283;SDS011;5698;47.332;11.180;2023-03-19T08:07:43;2.33;;;1.80;;
11283;SDS011;5698;47.332;11.180;2023-03-19T08:10:12;3.90;;;1.90;;
11283;SDS011;5698;47.332;11.180;2023-03-19T08:12:39;2.67;;;2.00;;
11283;SDS011;5698;47.332;11.180;2023-03-19T08:15:07;2.00;;;1.80;;
11283;SDS011;5698;47.332;11.180;2023-03-19T08:17:36;1.80;;;1.60;;
11283;SDS011;5698;47.332;11.180;2023-03-19T08:20:04;2.90;;;1.87;;
11283;SDS011;5698;47.332;11.180;2023-03-19T08:22:33;2.23;;;1.70;;
11283;SDS011;5698;47.332;11.180;2023-03-19T08:25:00;3.00;;;2.30;;
11283;SDS011;5698;47.332;11.180;2023-03-19T08:27:29;3.17;;;2.00;;
11283;SDS011;5698;47.332;11.180;2023-03-19T08:29:58;2.73;;;1.83;;
11283;SDS011;5698;47.332;11.180;2023-03-19T08:32:25;3.47;;;2.10;;
11283;SDS011;5698;47.332;11.180;2023-03-19T08:34:52;4.83;;;3.60;;
11283;SDS011;5698;47.332;11.180;2023-03-19T08:37:20;2.93;;;2.03;;
11283;SDS011;5698;47.332;11.180;2023-03-19T08:39:48;3.00;;;2.07;;
11283;SDS011;5698;47.332;11.180;2023-03-19T08:42:16;3.63;;;2.37;;
11283;SDS011;5698;47.332;11.180;2023-03-19T08:44:44;2.30;;;1.87;;
11283;SDS011;5698;47.332;11.180;2023-03-19T08:47:12;1.83;;;1.63;;
11283;SDS011;5698;47.332;11.180;2023-03-19T08:49:39;2.30;;;1.90;;
11283;SDS011;5698;47.332;11.180;2023-03-19T08:52:08;1.90;;;1.60;;
11283;SDS011;5698;47.332;11.180;2023-03-19T08:54:35;2.80;;;2.00;;
11283;SDS011;5698;47.332;11.180;2023-03-19T08:57:02;4.17;;;2.23;;
11283;SDS011;5698;47.332;11.180;2023-03-19T08:59:30;3.27;;;1.80;;
11283;SDS011;5698;47.332;11.180;2023-03-19T09:01:58;2.63;;;1.93;;
11283;SDS011;5698;47.332;11.180;2023-03-19T09:04:25;3.60;;;2.33;;
11283;SDS011;5698;47.332;11.180;2023-03-19T09:06:53;2.93;;;2.10;;
11283;SDS011;5698;47.332;11.180;2023-03-19T09:09:20;3.20;;;1.80;;
11283;SDS011;5698;47.332;11.180;2023-03-19T09:11:49;3.70;;;1.80;;
11283;SDS011;5698;47.332;11.180;2023-03-19T09:14:16;2.13;;;1.73;;
11283;SDS011;5698;47.332;11.180;2023-03-19T09:16:44;2.67;;;2.20;;
11283;SDS011;5698;47.332;11.180;2023-03-19T09:19:13;3.37;;;1.73;;
11283;SDS011;5698;47.332;11.180;2023-03-19T09:21:40;1.93;;;1.80;;
11283;SDS011;5698;47.332;11.180;2023-03-19T09:24:07;3.00;;;1.90;;
11283;SDS011;5698;47.332;11.180;2023-03-19T09:26:34;2.30;;;1.80;;
11283;SDS011;5698;47.332;11.180;2023-03-19T09:29:01;2.30;;;1.37;;
11283;SDS011;5698;47.332;11.180;2023-03-19T09:31:29;4.23;;;1.80;;
11283;SDS011;5698;47.332;11.180;2023-03-19T09:33:56;2.23;;;1.70;;
11283;SDS011;5698;47.332;11.180;2023-03-19T09:36:24;2.00;;;1.80;;
11283;SDS011;5698;47.332;11.180;2023-03-19T09:38:51;1.97;;;1.77;;
11283;SDS011;5698;47.332;11.180;2023-03-19T09:41:21;3.60;;;2.20;;
11283;SDS011;5698;47.332;11.180;2023-03-19T09:43:56;3.07;;;1.77;;
11283;SDS011;5698;47.332;11.180;2023-03-19T09:46:28;3.33;;;1.97;;
11283;SDS011;5698;47.332;11.180;2023-03-19T09:48:59;3.87;;;2.30;;
11283;SDS011;5698;47.332;11.180;2023-03-19T09:51:39;3.50;;;1.90;;
11283;SDS011;5698;47.332;11.180;2023-03-19T09:54:19;2.57;;;1.80;;
11283;SDS011;5698;47.332;11.180;2023-03-19T09:56:52;6.70;;;1.90;;
11283;SDS011;5698;47.332;11.180;2023-03-19T09:59:20;3.03;;;1.60;;
11283;SDS011;5698;47.332;11.180;2023-03-19T10:01:52;2.73;;;1.87;;
11283;SDS011;5698;47.332;11.180;2023-03-19T10:04:34;2.53;;;1.90;;
11283;SDS011;5698;47.332;11.180;2023-03-19T10:07:13;3.50;;;2.07;;
11283;SDS011;5698;47.332;11.180;2023-03-19T10:10:00;2.80;;;2.33;;
11283;SDS011;5698;47.332;11.180;2023-03-19T10:12:38;3.30;;;2.20;;
11283;SDS011;5698;47.332;11.180;2023-03-19T10:15:17;4.67;;;2.47;;
11283;SDS011;5698;47.332;11.180;2023-03-19T10:17:56;2.70;;;2.17;;
11283;SDS011;5698;47.332;11.180;2023-03-19T10:20:33;5.53;;;2.53;;
11283;SDS011;5698;47.332;11.180;2023-03-19T10:23:22;4.03;;;2.23;;
11283;SDS011;5698;47.332;11.180;2023-03-19T10:25:58;8.10;;;2.47;;
11283;SDS011;5698;47.332;11.180;2023-03-19T10:28:28;5.13;;;2.43;;
11283;SDS011;5698;47.332;11.180;2023-03-19T10:30:58;3.80;;;2.20;;
11283;SDS011;5698;47.332;11.180;2023-03-19T10:33:37;3.07;;;2.47;;
11283;SDS011;5698;47.332;11.180;2023-03-19T10:36:10;4.40;;;2.20;;
11283;SDS011;5698;47.332;11.180;2023-03-19T10:38:40;15.90;;;10.70;;
11283;SDS011;5698;47.332;11.180;2023-03-19T10:41:17;3.40;;;2.17;;
11283;SDS011;5698;47.332;11.180;2023-03-19T10:43:51;3.40;;;2.20;;
11283;SDS011;5698;47.332;11.180;2023-03-19T10:46:19;3.93;;;2.30;;
11283;SDS011;5698;47.332;11.180;2023-03-19T10:48:47;3.47;;;2.60;;
11283;SDS011;5698;47.332;11.180;2023-03-19T10:51:14;2.67;;;2.00;;
11283;SDS011;5698;47.332;11.180;2023-03-19T10:53:45;3.63;;;2.07;;
11283;SDS011;5698;47.332;11.180;2023-03-19T10:56:17;2.10;;;1.80;;
11283;SDS011;5698;47.332;11.180;2023-03-19T10:58:57;4.57;;;2.57;;
11283;SDS011;5698;47.332;11.180;2023-03-19T11:01:26;3.23;;;2.03;;
11283;SDS011;5698;47.332;11.180;2023-03-19T11:03:58;5.33;;;2.60;;
11283;SDS011;5698;47.332;11.180;2023-03-19T11:06:27;2.97;;;2.20;;
11283;SDS011;5698;47.332;11.180;2023-03-19T11:09:00;3.77;;;2.03;;
11283;SDS011;5698;47.332;11.180;2023-03-19T11:11:32;2.50;;;2.10;;
11283;SDS011;5698;47.332;11.180;2023-03-19T11:14:07;3.43;;;2.57;;
11283;SDS011;5698;47.332;11.180;2023-03-19T11:16:46;4.10;;;2.13;;
11283;SDS011;5698;47.332;11.180;2023-03-19T11:19:25;2.33;;;2.10;;
11283;SDS011;5698;47.332;11.180;2023-03-19T11:22:00;3.10;;;2.10;;
11283;SDS011;5698;47.332;11.180;2023-03-19T11:24:36;4.17;;;2.17;;
11283;SDS011;5698;47.332;11.180;2023-03-19T11:27:05;2.87;;;2.37;;
11283;SDS011;5698;47.332;11.180;2023-03-19T11:29:34;4.03;;;2.13;;
11283;SDS011;5698;47.332;11.180;2023-03-19T11:32:09;3.40;;;2.10;;
11283;SDS011;5698;47.332;11.180;2023-03-19T11:34:44;2.43;;;2.23;;
11283;SDS011;5698;47.332;11.180;2023-03-19T11:37:19;4.70;;;2.43;;
11283;SDS011;5698;47.332;11.180;2023-03-19T11:39:56;3.47;;;2.40;;
11283;SDS011;5698;47.332;11.180;2023-03-19T11:42:38;5.17;;;2.53;;
11283;SDS011;5698;47.332;11.180;2023-03-19T11:45:29;2.47;;;2.23;;
11283;SDS011;5698;47.332;11.180;2023-03-19T11:50:53;4.43;;;2.20;;
11283;SDS011;5698;47.332;11.180;2023-03-19T11:53:25;4.03;;;2.53;;
11283;SDS011;5698;47.332;11.180;2023-03-19T11:56:01;4.00;;;2.60;;
11283;SDS011;5698;47.332;11.180;2023-03-19T11:58:45;3.90;;;2.43;;
11283;SDS011;5698;47.332;11.180;2023-03-19T12:01:30;4.60;;;2.50;;
11283;SDS011;5698;47.332;11.180;2023-03-19T12:04:15;4.50;;;2.20;;
11283;SDS011;5698;47.332;11.180;2023-03-19T12:06:53;4.27;;;2.13;;
11283;SDS011;5698;47.332;11.180;2023-03-19T12:09:32;5.23;;;2.40;;
11283;SDS011;5698;47.332;11.180;2023-03-19T12:12:08;3.23;;;2.17;;
11283;SDS011;5698;47.332;11.180;2023-03-19T12:14:47;4.03;;;2.23;;
11283;SDS011;5698;47.332;11.180;2023-03-19T12:17:34;5.10;;;2.20;;
11283;SDS011;5698;47.332;11.180;2023-03-19T12:23:05;4.00;;;2.43;;
11283;SDS011;5698;47.332;11.180;2023-03-19T12:25:40;2.77;;;2.17;;
11283;SDS011;5698;47.332;11.180;2023-03-19T12:28:30;3.90;;;2.47;;
11283;SDS011;5698;47.332;11.180;2023-03-19T12:34:03;2.83;;;2.47;;
11283;SDS011;5698;47.332;11.180;2023-03-19T12:36:48;2.40;;;2.13;;
11283;SDS011;5698;47.332;11.180;2023-03-19T12:39:20;2.70;;;2.20;;
11283;SDS011;5698;47.332;11.180;2023-03-19T12:41:51;3.87;;;2.43;;
11283;SDS011;5698;47.332;11.180;2023-03-19T12:44:23;3.63;;;2.40;;
11283;SDS011;5698;47.332;11.180;2023-03-19T12:46:55;3.63;;;2.23;;
11283;SDS011;5698;47.332;11.180;2023-03-19T12:49:28;2.60;;;2.40;;
11283;SDS011;5698;47.332;11.180;2023-03-19T12:52:01;4.00;;;2.47;;
11283;SDS011;5698;47.332;11.180;2023-03-19T12:54:34;2.50;;;2.27;;
11283;SDS011;5698;47.332;11.180;2023-03-19T12:57:06;3.07;;;2.17;;
11283;SDS011;5698;47.332;11.180;2023-03-19T12:59:39;4.43;;;2.33;;
11283;SDS011;5698;47.332;11.180;2023-03-19T13:02:15;5.20;;;2.37;;
11283;SDS011;5698;47.332;11.180;2023-03-19T13:04:48;2.37;;;2.13;;
11283;SDS011;5698;47.332;11.180;2023-03-19T13:07:21;2.60;;;2.20;;
11283;SDS011;5698;47.332;11.180;2023-03-19T13:09:52;2.57;;;1.97;;
11283;SDS011;5698;47.332;11.180;2023-03-19T13:12:26;4.03;;;2.30;;
11283;SDS011;5698;47.332;11.180;2023-03-19T13:14:58;3.33;;;2.00;;
11283;SDS011;5698;47.332;11.180;2023-03-19T13:17:32;2.80;;;1.97;;
11283;SDS011;5698;47.332;11.180;2023-03-19T13:20:08;4.10;;;2.43;;
11283;SDS011;5698;47.332;11.180;2023-03-19T13:22:46;3.00;;;2.10;;
11283;SDS011;5698;47.332;11.180;2023-03-19T13:25:18;3.97;;;2.57;;
11283;SDS011;5698;47.332;11.180;2023-03-19T13:27:53;3.67;;;2.60;;
11283;SDS011;5698;47.332;11.180;2023-03-19T13:30:22;3.30;;;2.23;;
11283;SDS011;5698;47.332;11.180;2023-03-19T13:32:51;4.80;;;2.40;;
11283;SDS011;5698;47.332;11.180;2023-03-19T13:35:30;2.63;;;2.10;;
11283;SDS011;5698;47.332;11.180;2023-03-19T13:38:02;3.53;;;2.40;;
11283;SDS011;5698;47.332;11.180;2023-03-19T13:40:36;4.00;;;2.20;;
11283;SDS011;5698;47.332;11.180;2023-03-19T13:43:14;3.70;;;2.10;;
11283;SDS011;5698;47.332;11.180;2023-03-19T13:46:29;3.60;;;2.23;;
11283;SDS011;5698;47.332;11.180;2023-03-19T13:52:00;3.67;;;2.23;;
11283;SDS011;5698;47.332;11.180;2023-03-19T13:54:33;4.80;;;1.77;;
11283;SDS011;5698;47.332;11.180;2023-03-19T14:03:24;2.57;;;2.07;;
11283;SDS011;5698;47.332;11.180;2023-03-19T14:05:54;5.63;;;2.30;;
11283;SDS011;5698;47.332;11.180;2023-03-19T14:08:23;2.60;;;2.27;;
11283;SDS011;5698;47.332;11.180;2023-03-19T14:10:53;3.80;;;2.60;;
11283;SDS011;5698;47.332;11.180;2023-03-19T14:13:29;4.33;;;2.53;;
11283;SDS011;5698;47.332;11.180;2023-03-19T14:16:00;2.47;;;2.13;;
11283;SDS011;5698;47.332;11.180;2023-03-19T14:18:33;5.07;;;2.43;;
11283;SDS011;5698;47.332;11.180;2023-03-19T14:21:08;5.60;;;2.70;;
11283;SDS011;5698;47.332;11.180;2023-03-19T14:23:38;3.57;;;2.67;;
11283;SDS011;5698;47.332;11.180;2023-03-19T14:26:09;2.53;;;2.33;;
11283;SDS011;5698;47.332;11.180;2023-03-19T14:31:26;4.07;;;2.40;;
11283;SDS011;5698;47.332;11.180;2023-03-19T14:34:00;2.50;;;2.23;;
11283;SDS011;5698;47.332;11.180;2023-03-19T14:36:30;4.50;;;2.10;;
11283;SDS011;5698;47.332;11.180;2023-03-19T14:39:00;7.70;;;2.40;;
11283;SDS011;5698;47.332;11.180;2023-03-19T14:41:36;5.00;;;2.87;;
11283;SDS011;5698;47.332;11.180;2023-03-19T14:47:30;6.20;;;2.53;;
11283;SDS011;5698;47.332;11.180;2023-03-19T14:53:12;3.33;;;2.37;;
11283;SDS011;5698;47.332;11.180;2023-03-19T14:55:42;4.33;;;3.10;;
11283;SDS011;5698;47.332;11.180;2023-03-19T14:58:15;4.77;;;2.63;;
11283;SDS011;5698;47.332;11.180;2023-03-19T15:00:44;3.43;;;2.30;;
11283;SDS011;5698;47.332;11.180;2023-03-19T15:03:26;6.07;;;3.53;;
11283;SDS011;5698;47.332;11.180;2023-03-19T15:05:57;9.20;;;5.53;;
11283;SDS011;5698;47.332;11.180;2023-03-19T15:08:27;3.60;;;3.27;;
11283;SDS011;5698;47.332;11.180;2023-03-19T15:11:00;7.97;;;2.53;;
11283;SDS011;5698;47.332;11.180;2023-03-19T15:13:47;3.10;;;2.20;;
11283;SDS011;5698;47.332;11.180;2023-03-19T15:16:27;2.87;;;1.80;;
11283;SDS011;5698;47.332;11.180;2023-03-19T15:19:00;2.63;;;1.90;;
11283;SDS011;5698;47.332;11.180;2023-03-19T15:21:28;2.10;;;1.57;;
11283;SDS011;5698;47.332;11.180;2023-03-19T15:23:57;3.27;;;2.17;;
11283;SDS011;5698;47.332;11.180;2023-03-19T15:26:30;2.60;;;1.87;;
11283;SDS011;5698;47.332;11.180;2023-03-19T15:28:59;3.10;;;2.00;;
11283;SDS011;5698;47.332;11.180;2023-03-19T15:31:39;2.23;;;1.80;;
11283;SDS011;5698;47.332;11.180;2023-03-19T15:34:17;3.17;;;2.03;;